Temiscaming, Canada
Current Conditions -  °F | °C
As of 7:00 AM on Wednesday 28 Jan 2015 (Local Time) from CYYB Reporting Station
Clear Clear  
Wind Chill: -18°   Ceiling: Unl
Heat Index: -18°   Visibility: 15mi
Dew Point: -22°   Wind: 2mph
Humidity: 84%   Direction: NA
Pressure: 30.18"   Gusts: NA
Location:  46.72°N, 79.08°W
Report Text: CYYB 281200Z VRB02KT 15SM SKC M28/M30 A3018 RMK SLP262
Loading
Personal Weather Stations






























Interactive Weather Map New forecast layout! Learn more

10-Day Weather Forecast

Advertisements
Track Severe Weather on mobile